sensor_id;sensor_type;location;lat;lon;timestamp;P1;durP1;ratioP1;P2;durP2;ratioP2
31594;SDS011;18200;48.726;8.892;2024-03-06T00:00:45;10.77;;;5.43;;
31594;SDS011;18200;48.726;8.892;2024-03-06T00:04:45;9.27;;;4.82;;
31594;SDS011;18200;48.726;8.892;2024-03-06T00:08:46;8.27;;;5.05;;
31594;SDS011;18200;48.726;8.892;2024-03-06T00:12:46;8.02;;;4.90;;
31594;SDS011;18200;48.726;8.892;2024-03-06T00:16:47;7.32;;;5.10;;
31594;SDS011;18200;48.726;8.892;2024-03-06T00:20:47;8.95;;;4.30;;
31594;SDS011;18200;48.726;8.892;2024-03-06T00:24:48;9.48;;;4.78;;
31594;SDS011;18200;48.726;8.892;2024-03-06T00:28:48;9.38;;;4.50;;
31594;SDS011;18200;48.726;8.892;2024-03-06T00:32:48;8.02;;;4.35;;
31594;SDS011;18200;48.726;8.892;2024-03-06T00:36:49;7.20;;;4.40;;
31594;SDS011;18200;48.726;8.892;2024-03-06T00:40:49;9.43;;;4.55;;
31594;SDS011;18200;48.726;8.892;2024-03-06T00:44:50;11.05;;;4.72;;
31594;SDS011;18200;48.726;8.892;2024-03-06T00:48:50;9.43;;;4.38;;
31594;SDS011;18200;48.726;8.892;2024-03-06T00:52:51;8.27;;;4.53;;
31594;SDS011;18200;48.726;8.892;2024-03-06T00:56:51;8.85;;;4.40;;
31594;SDS011;18200;48.726;8.892;2024-03-06T01:00:51;7.35;;;4.53;;
31594;SDS011;18200;48.726;8.892;2024-03-06T01:04:52;8.65;;;4.85;;
31594;SDS011;18200;48.726;8.892;2024-03-06T01:08:52;8.93;;;5.40;;
31594;SDS011;18200;48.726;8.892;2024-03-06T01:12:53;8.52;;;5.00;;
31594;SDS011;18200;48.726;8.892;2024-03-06T01:16:53;8.38;;;4.90;;
31594;SDS011;18200;48.726;8.892;2024-03-06T01:20:53;8.32;;;4.65;;
31594;SDS011;18200;48.726;8.892;2024-03-06T01:24:54;11.45;;;5.95;;
31594;SDS011;18200;48.726;8.892;2024-03-06T01:28:54;8.82;;;5.38;;
31594;SDS011;18200;48.726;8.892;2024-03-06T01:32:54;9.43;;;4.65;;
31594;SDS011;18200;48.726;8.892;2024-03-06T01:36:55;7.50;;;4.88;;
31594;SDS011;18200;48.726;8.892;2024-03-06T01:40:55;9.57;;;4.70;;
31594;SDS011;18200;48.726;8.892;2024-03-06T01:44:56;8.63;;;4.93;;
31594;SDS011;18200;48.726;8.892;2024-03-06T01:48:56;9.23;;;5.35;;
31594;SDS011;18200;48.726;8.892;2024-03-06T01:52:57;13.77;;;6.90;;
31594;SDS011;18200;48.726;8.892;2024-03-06T01:56:57;16.15;;;7.50;;
31594;SDS011;18200;48.726;8.892;2024-03-06T02:01:00;9.80;;;4.93;;
31594;SDS011;18200;48.726;8.892;2024-03-06T02:05:01;11.65;;;5.03;;
31594;SDS011;18200;48.726;8.892;2024-03-06T02:09:02;7.95;;;4.47;;
31594;SDS011;18200;48.726;8.892;2024-03-06T02:13:07;10.15;;;5.05;;
31594;SDS011;18200;48.726;8.892;2024-03-06T02:17:09;8.88;;;4.88;;
31594;SDS011;18200;48.726;8.892;2024-03-06T02:21:10;10.15;;;5.20;;
31594;SDS011;18200;48.726;8.892;2024-03-06T02:25:10;11.35;;;5.65;;
31594;SDS011;18200;48.726;8.892;2024-03-06T02:29:12;12.40;;;6.40;;
31594;SDS011;18200;48.726;8.892;2024-03-06T02:33:12;9.60;;;5.78;;
31594;SDS011;18200;48.726;8.892;2024-03-06T02:37:13;14.68;;;8.73;;
31594;SDS011;18200;48.726;8.892;2024-03-06T02:41:14;22.40;;;10.82;;
31594;SDS011;18200;48.726;8.892;2024-03-06T02:45:15;29.77;;;14.10;;
31594;SDS011;18200;48.726;8.892;2024-03-06T02:49:16;17.08;;;8.98;;
31594;SDS011;18200;48.726;8.892;2024-03-06T02:53:17;13.32;;;6.93;;
31594;SDS011;18200;48.726;8.892;2024-03-06T02:57:18;13.98;;;7.28;;
31594;SDS011;18200;48.726;8.892;2024-03-06T03:01:18;10.98;;;6.10;;
31594;SDS011;18200;48.726;8.892;2024-03-06T03:05:19;8.35;;;5.03;;
31594;SDS011;18200;48.726;8.892;2024-03-06T03:09:19;11.63;;;4.80;;
31594;SDS011;18200;48.726;8.892;2024-03-06T03:13:20;7.88;;;4.80;;
31594;SDS011;18200;48.726;8.892;2024-03-06T03:17:21;7.35;;;4.57;;
31594;SDS011;18200;48.726;8.892;2024-03-06T03:21:22;9.40;;;5.05;;
31594;SDS011;18200;48.726;8.892;2024-03-06T03:25:22;9.27;;;5.82;;
31594;SDS011;18200;48.726;8.892;2024-03-06T03:29:23;13.18;;;5.45;;
31594;SDS011;18200;48.726;8.892;2024-03-06T03:33:23;8.50;;;4.60;;
31594;SDS011;18200;48.726;8.892;2024-03-06T03:37:23;11.43;;;5.45;;
31594;SDS011;18200;48.726;8.892;2024-03-06T03:41:24;7.90;;;4.70;;
31594;SDS011;18200;48.726;8.892;2024-03-06T03:45:25;10.73;;;6.22;;
31594;SDS011;18200;48.726;8.892;2024-03-06T03:49:26;7.57;;;4.55;;
31594;SDS011;18200;48.726;8.892;2024-03-06T03:53:26;8.00;;;4.97;;
31594;SDS011;18200;48.726;8.892;2024-03-06T03:57:26;9.18;;;4.50;;
31594;SDS011;18200;48.726;8.892;2024-03-06T04:01:27;8.57;;;4.70;;
31594;SDS011;18200;48.726;8.892;2024-03-06T04:05:27;9.20;;;4.43;;
31594;SDS011;18200;48.726;8.892;2024-03-06T04:09:28;7.60;;;5.40;;
31594;SDS011;18200;48.726;8.892;2024-03-06T04:13:28;9.43;;;5.15;;
31594;SDS011;18200;48.726;8.892;2024-03-06T04:17:28;8.43;;;4.50;;
31594;SDS011;18200;48.726;8.892;2024-03-06T04:21:29;12.80;;;6.88;;
31594;SDS011;18200;48.726;8.892;2024-03-06T04:25:29;10.27;;;5.25;;
31594;SDS011;18200;48.726;8.892;2024-03-06T04:29:30;21.67;;;10.52;;
31594;SDS011;18200;48.726;8.892;2024-03-06T04:33:30;20.95;;;8.10;;
31594;SDS011;18200;48.726;8.892;2024-03-06T04:37:30;13.30;;;5.72;;
31594;SDS011;18200;48.726;8.892;2024-03-06T04:41:33;11.35;;;5.55;;
31594;SDS011;18200;48.726;8.892;2024-03-06T04:45:34;10.55;;;5.50;;
31594;SDS011;18200;48.726;8.892;2024-03-06T04:49:34;12.98;;;6.38;;
31594;SDS011;18200;48.726;8.892;2024-03-06T04:53:34;8.73;;;4.90;;
31594;SDS011;18200;48.726;8.892;2024-03-06T04:57:36;19.15;;;8.93;;
31594;SDS011;18200;48.726;8.892;2024-03-06T05:01:40;9.65;;;4.85;;
31594;SDS011;18200;48.726;8.892;2024-03-06T05:05:41;9.02;;;5.13;;
31594;SDS011;18200;48.726;8.892;2024-03-06T05:09:41;9.52;;;5.13;;
31594;SDS011;18200;48.726;8.892;2024-03-06T05:13:41;9.18;;;4.90;;
31594;SDS011;18200;48.726;8.892;2024-03-06T05:17:42;8.43;;;5.32;;
31594;SDS011;18200;48.726;8.892;2024-03-06T05:21:43;8.00;;;4.85;;
31594;SDS011;18200;48.726;8.892;2024-03-06T05:25:43;8.80;;;5.00;;
31594;SDS011;18200;48.726;8.892;2024-03-06T05:29:44;11.35;;;5.38;;
31594;SDS011;18200;48.726;8.892;2024-03-06T05:33:48;8.27;;;5.07;;
31594;SDS011;18200;48.726;8.892;2024-03-06T05:41:49;8.05;;;5.97;;
31594;SDS011;18200;48.726;8.892;2024-03-06T05:45:50;10.57;;;5.53;;
31594;SDS011;18200;48.726;8.892;2024-03-06T05:49:50;7.75;;;5.40;;
31594;SDS011;18200;48.726;8.892;2024-03-06T05:53:51;9.38;;;5.10;;
31594;SDS011;18200;48.726;8.892;2024-03-06T05:57:52;8.63;;;4.80;;
31594;SDS011;18200;48.726;8.892;2024-03-06T06:01:53;10.68;;;5.20;;
31594;SDS011;18200;48.726;8.892;2024-03-06T06:05:54;10.52;;;6.32;;
31594;SDS011;18200;48.726;8.892;2024-03-06T06:09:54;11.57;;;6.25;;
31594;SDS011;18200;48.726;8.892;2024-03-06T06:13:55;18.75;;;8.73;;
31594;SDS011;18200;48.726;8.892;2024-03-06T06:17:55;22.98;;;10.13;;
31594;SDS011;18200;48.726;8.892;2024-03-06T06:21:56;32.92;;;11.55;;
31594;SDS011;18200;48.726;8.892;2024-03-06T06:25:56;23.85;;;10.50;;
31594;SDS011;18200;48.726;8.892;2024-03-06T06:29:57;25.70;;;10.02;;
31594;SDS011;18200;48.726;8.892;2024-03-06T06:33:58;15.45;;;6.90;;
31594;SDS011;18200;48.726;8.892;2024-03-06T06:37:58;14.73;;;6.95;;
31594;SDS011;18200;48.726;8.892;2024-03-06T06:42:00;14.60;;;7.78;;
31594;SDS011;18200;48.726;8.892;2024-03-06T06:46:00;16.95;;;6.53;;
31594;SDS011;18200;48.726;8.892;2024-03-06T06:50:01;11.07;;;6.22;;
31594;SDS011;18200;48.726;8.892;2024-03-06T06:54:05;11.50;;;5.35;;
31594;SDS011;18200;48.726;8.892;2024-03-06T06:58:06;13.40;;;5.90;;
31594;SDS011;18200;48.726;8.892;2024-03-06T07:02:06;14.43;;;6.22;;
31594;SDS011;18200;48.726;8.892;2024-03-06T07:06:06;17.30;;;6.05;;
31594;SDS011;18200;48.726;8.892;2024-03-06T07:10:07;12.32;;;5.63;;
31594;SDS011;18200;48.726;8.892;2024-03-06T07:14:08;13.02;;;6.05;;
31594;SDS011;18200;48.726;8.892;2024-03-06T07:18:08;10.25;;;5.85;;
31594;SDS011;18200;48.726;8.892;2024-03-06T07:22:09;11.52;;;5.68;;
31594;SDS011;18200;48.726;8.892;2024-03-06T07:26:09;11.27;;;5.45;;
31594;SDS011;18200;48.726;8.892;2024-03-06T07:30:10;16.13;;;6.38;;
31594;SDS011;18200;48.726;8.892;2024-03-06T07:34:11;13.68;;;6.32;;
31594;SDS011;18200;48.726;8.892;2024-03-06T07:38:12;15.85;;;7.20;;
31594;SDS011;18200;48.726;8.892;2024-03-06T07:42:12;14.73;;;6.80;;
31594;SDS011;18200;48.726;8.892;2024-03-06T07:46:13;14.45;;;6.82;;
31594;SDS011;18200;48.726;8.892;2024-03-06T07:50:13;11.57;;;6.43;;
31594;SDS011;18200;48.726;8.892;2024-03-06T07:54:18;10.55;;;5.95;;
31594;SDS011;18200;48.726;8.892;2024-03-06T07:58:19;11.60;;;5.53;;
31594;SDS011;18200;48.726;8.892;2024-03-06T08:02:21;11.38;;;4.80;;
31594;SDS011;18200;48.726;8.892;2024-03-06T08:06:22;10.77;;;5.15;;
31594;SDS011;18200;48.726;8.892;2024-03-06T08:10:22;10.00;;;4.53;;
31594;SDS011;18200;48.726;8.892;2024-03-06T08:14:22;10.07;;;4.50;;
31594;SDS011;18200;48.726;8.892;2024-03-06T08:18:23;11.20;;;4.68;;
31594;SDS011;18200;48.726;8.892;2024-03-06T08:22:24;10.40;;;4.75;;
31594;SDS011;18200;48.726;8.892;2024-03-06T08:26:24;13.95;;;5.10;;
31594;SDS011;18200;48.726;8.892;2024-03-06T08:30:24;11.38;;;4.68;;
31594;SDS011;18200;48.726;8.892;2024-03-06T08:34:25;11.00;;;5.00;;
31594;SDS011;18200;48.726;8.892;2024-03-06T08:38:25;12.02;;;6.07;;
31594;SDS011;18200;48.726;8.892;2024-03-06T08:42:25;11.10;;;5.03;;
31594;SDS011;18200;48.726;8.892;2024-03-06T08:46:26;12.93;;;4.97;;
31594;SDS011;18200;48.726;8.892;2024-03-06T08:50:27;11.10;;;4.88;;
31594;SDS011;18200;48.726;8.892;2024-03-06T08:54:27;9.88;;;5.55;;
31594;SDS011;18200;48.726;8.892;2024-03-06T08:58:27;10.60;;;4.28;;
31594;SDS011;18200;48.726;8.892;2024-03-06T09:02:28;10.23;;;4.25;;
31594;SDS011;18200;48.726;8.892;2024-03-06T09:06:28;7.13;;;3.95;;
31594;SDS011;18200;48.726;8.892;2024-03-06T09:10:29;9.10;;;4.47;;
31594;SDS011;18200;48.726;8.892;2024-03-06T09:14:29;9.50;;;4.75;;
31594;SDS011;18200;48.726;8.892;2024-03-06T09:18:29;11.48;;;5.00;;
31594;SDS011;18200;48.726;8.892;2024-03-06T09:22:30;9.77;;;5.38;;
31594;SDS011;18200;48.726;8.892;2024-03-06T09:26:30;10.68;;;5.18;;
31594;SDS011;18200;48.726;8.892;2024-03-06T09:30:30;12.43;;;6.07;;
31594;SDS011;18200;48.726;8.892;2024-03-06T09:34:31;11.75;;;6.47;;
31594;SDS011;18200;48.726;8.892;2024-03-06T09:38:31;10.85;;;6.70;;
31594;SDS011;18200;48.726;8.892;2024-03-06T09:42:32;10.27;;;6.82;;
31594;SDS011;18200;48.726;8.892;2024-03-06T09:46:32;10.32;;;7.20;;
31594;SDS011;18200;48.726;8.892;2024-03-06T09:50:34;10.93;;;6.68;;
31594;SDS011;18200;48.726;8.892;2024-03-06T09:54:41;12.00;;;6.88;;
31594;SDS011;18200;48.726;8.892;2024-03-06T09:58:41;12.30;;;6.97;;
31594;SDS011;18200;48.726;8.892;2024-03-06T10:02:50;13.18;;;7.47;;
31594;SDS011;18200;48.726;8.892;2024-03-06T10:06:57;13.52;;;8.18;;
31594;SDS011;18200;48.726;8.892;2024-03-06T10:10:58;13.15;;;7.95;;
31594;SDS011;18200;48.726;8.892;2024-03-06T10:14:59;17.08;;;9.25;;
31594;SDS011;18200;48.726;8.892;2024-03-06T10:19:14;16.60;;;10.75;;
31594;SDS011;18200;48.726;8.892;2024-03-06T10:23:16;17.85;;;11.63;;
31594;SDS011;18200;48.726;8.892;2024-03-06T10:27:18;17.83;;;12.02;;
31594;SDS011;18200;48.726;8.892;2024-03-06T10:31:26;18.08;;;12.50;;
31594;SDS011;18200;48.726;8.892;2024-03-06T10:35:28;20.80;;;13.63;;
31594;SDS011;18200;48.726;8.892;2024-03-06T10:39:30;21.52;;;13.95;;
31594;SDS011;18200;48.726;8.892;2024-03-06T10:43:34;20.02;;;13.75;;
31594;SDS011;18200;48.726;8.892;2024-03-06T10:47:37;19.05;;;13.45;;
31594;SDS011;18200;48.726;8.892;2024-03-06T10:51:40;20.95;;;14.70;;
31594;SDS011;18200;48.726;8.892;2024-03-06T10:55:44;23.67;;;15.02;;
31594;SDS011;18200;48.726;8.892;2024-03-06T10:59:45;19.83;;;14.55;;
31594;SDS011;18200;48.726;8.892;2024-03-06T11:03:46;23.70;;;15.45;;
31594;SDS011;18200;48.726;8.892;2024-03-06T11:07:48;23.55;;;16.27;;
31594;SDS011;18200;48.726;8.892;2024-03-06T11:11:51;28.88;;;16.50;;
31594;SDS011;18200;48.726;8.892;2024-03-06T11:15:52;28.25;;;17.73;;
31594;SDS011;18200;48.726;8.892;2024-03-06T11:24:13;28.52;;;18.85;;
31594;SDS011;18200;48.726;8.892;2024-03-06T11:32:22;31.52;;;18.88;;
31594;SDS011;18200;48.726;8.892;2024-03-06T11:36:26;30.58;;;19.17;;
31594;SDS011;18200;48.726;8.892;2024-03-06T11:40:31;30.63;;;18.83;;
31594;SDS011;18200;48.726;8.892;2024-03-06T11:44:31;27.02;;;17.15;;
31594;SDS011;18200;48.726;8.892;2024-03-06T11:48:32;26.98;;;16.65;;
31594;SDS011;18200;48.726;8.892;2024-03-06T11:52:33;25.63;;;17.40;;
31594;SDS011;18200;48.726;8.892;2024-03-06T11:56:33;30.98;;;17.42;;
31594;SDS011;18200;48.726;8.892;2024-03-06T12:00:33;23.98;;;16.05;;
31594;SDS011;18200;48.726;8.892;2024-03-06T12:04:34;28.15;;;16.17;;
31594;SDS011;18200;48.726;8.892;2024-03-06T12:08:38;26.02;;;16.05;;
31594;SDS011;18200;48.726;8.892;2024-03-06T12:12:43;27.17;;;16.00;;
31594;SDS011;18200;48.726;8.892;2024-03-06T12:16:54;26.40;;;16.30;;
31594;SDS011;18200;48.726;8.892;2024-03-06T12:21:04;27.17;;;16.15;;
31594;SDS011;18200;48.726;8.892;2024-03-06T12:25:05;30.27;;;17.27;;
31594;SDS011;18200;48.726;8.892;2024-03-06T12:29:10;29.60;;;16.25;;
31594;SDS011;18200;48.726;8.892;2024-03-06T12:33:11;28.40;;;17.48;;
31594;SDS011;18200;48.726;8.892;2024-03-06T12:37:16;29.88;;;17.48;;
31594;SDS011;18200;48.726;8.892;2024-03-06T12:41:18;28.42;;;18.80;;
31594;SDS011;18200;48.726;8.892;2024-03-06T12:45:19;30.20;;;18.75;;
31594;SDS011;18200;48.726;8.892;2024-03-06T12:49:19;29.65;;;19.08;;
31594;SDS011;18200;48.726;8.892;2024-03-06T12:53:20;29.33;;;19.98;;
31594;SDS011;18200;48.726;8.892;2024-03-06T12:57:21;31.58;;;19.45;;
31594;SDS011;18200;48.726;8.892;2024-03-06T13:01:22;30.55;;;19.33;;
31594;SDS011;18200;48.726;8.892;2024-03-06T13:05:22;29.58;;;20.38;;
31594;SDS011;18200;48.726;8.892;2024-03-06T13:09:23;28.42;;;19.55;;
31594;SDS011;18200;48.726;8.892;2024-03-06T13:13:24;36.38;;;22.52;;
31594;SDS011;18200;48.726;8.892;2024-03-06T13:17:25;36.42;;;21.13;;
31594;SDS011;18200;48.726;8.892;2024-03-06T13:21:25;36.42;;;23.35;;
31594;SDS011;18200;48.726;8.892;2024-03-06T13:25:26;34.67;;;21.83;;
31594;SDS011;18200;48.726;8.892;2024-03-06T13:29:26;30.13;;;19.13;;
31594;SDS011;18200;48.726;8.892;2024-03-06T13:33:27;29.83;;;19.15;;
31594;SDS011;18200;48.726;8.892;2024-03-06T13:37:28;30.58;;;19.60;;
31594;SDS011;18200;48.726;8.892;2024-03-06T13:41:28;39.40;;;25.15;;
31594;SDS011;18200;48.726;8.892;2024-03-06T13:45:29;30.30;;;20.63;;
31594;SDS011;18200;48.726;8.892;2024-03-06T13:49:37;29.55;;;19.92;;
31594;SDS011;18200;48.726;8.892;2024-03-06T13:53:39;32.85;;;23.60;;
31594;SDS011;18200;48.726;8.892;2024-03-06T13:57:40;28.00;;;20.58;;
31594;SDS011;18200;48.726;8.892;2024-03-06T14:01:40;31.52;;;21.30;;
31594;SDS011;18200;48.726;8.892;2024-03-06T14:05:41;31.05;;;19.85;;
31594;SDS011;18200;48.726;8.892;2024-03-06T14:09:41;34.88;;;20.77;;
31594;SDS011;18200;48.726;8.892;2024-03-06T14:13:42;33.17;;;20.08;;
31594;SDS011;18200;48.726;8.892;2024-03-06T14:17:43;36.28;;;22.58;;
31594;SDS011;18200;48.726;8.892;2024-03-06T14:21:43;31.02;;;19.55;;
31594;SDS011;18200;48.726;8.892;2024-03-06T14:25:43;33.08;;;20.20;;
31594;SDS011;18200;48.726;8.892;2024-03-06T14:29:44;30.95;;;19.52;;
31594;SDS011;18200;48.726;8.892;2024-03-06T14:33:45;35.25;;;20.63;;
31594;SDS011;18200;48.726;8.892;2024-03-06T14:37:46;36.72;;;21.88;;
31594;SDS011;18200;48.726;8.892;2024-03-06T14:41:48;32.65;;;20.58;;
31594;SDS011;18200;48.726;8.892;2024-03-06T14:45:49;33.10;;;21.05;;
31594;SDS011;18200;48.726;8.892;2024-03-06T14:49:49;33.42;;;21.88;;
31594;SDS011;18200;48.726;8.892;2024-03-06T14:53:49;36.00;;;21.23;;
31594;SDS011;18200;48.726;8.892;2024-03-06T14:57:50;34.47;;;21.13;;
31594;SDS011;18200;48.726;8.892;2024-03-06T15:01:51;36.30;;;21.40;;
31594;SDS011;18200;48.726;8.892;2024-03-06T15:05:51;35.03;;;21.77;;
31594;SDS011;18200;48.726;8.892;2024-03-06T15:09:52;32.85;;;21.90;;
31594;SDS011;18200;48.726;8.892;2024-03-06T15:13:52;40.67;;;22.92;;
31594;SDS011;18200;48.726;8.892;2024-03-06T15:17:53;38.50;;;22.48;;
31594;SDS011;18200;48.726;8.892;2024-03-06T15:21:53;35.75;;;21.77;;
31594;SDS011;18200;48.726;8.892;2024-03-06T15:25:54;39.30;;;23.77;;
31594;SDS011;18200;48.726;8.892;2024-03-06T15:29:54;38.05;;;22.50;;
31594;SDS011;18200;48.726;8.892;2024-03-06T15:33:55;35.30;;;23.45;;
31594;SDS011;18200;48.726;8.892;2024-03-06T15:37:55;40.72;;;24.70;;
31594;SDS011;18200;48.726;8.892;2024-03-06T15:41:56;39.63;;;24.58;;
31594;SDS011;18200;48.726;8.892;2024-03-06T15:45:57;40.65;;;24.17;;
31594;SDS011;18200;48.726;8.892;2024-03-06T15:49:57;40.10;;;24.55;;
31594;SDS011;18200;48.726;8.892;2024-03-06T15:53:57;41.13;;;25.35;;
31594;SDS011;18200;48.726;8.892;2024-03-06T15:57:58;45.40;;;25.67;;
31594;SDS011;18200;48.726;8.892;2024-03-06T16:01:58;43.35;;;26.33;;
31594;SDS011;18200;48.726;8.892;2024-03-06T16:05:58;42.38;;;26.17;;
31594;SDS011;18200;48.726;8.892;2024-03-06T16:09:59;41.40;;;25.85;;
31594;SDS011;18200;48.726;8.892;2024-03-06T16:13:59;45.45;;;26.83;;
31594;SDS011;18200;48.726;8.892;2024-03-06T16:18:00;44.55;;;26.63;;
31594;SDS011;18200;48.726;8.892;2024-03-06T16:22:02;45.15;;;27.85;;
31594;SDS011;18200;48.726;8.892;2024-03-06T16:26:02;44.22;;;26.60;;
31594;SDS011;18200;48.726;8.892;2024-03-06T16:30:03;42.50;;;27.33;;
31594;SDS011;18200;48.726;8.892;2024-03-06T16:34:04;40.85;;;25.40;;
31594;SDS011;18200;48.726;8.892;2024-03-06T16:38:05;48.72;;;27.67;;
31594;SDS011;18200;48.726;8.892;2024-03-06T16:42:06;43.20;;;26.25;;
31594;SDS011;18200;48.726;8.892;2024-03-06T16:46:06;42.08;;;25.70;;
31594;SDS011;18200;48.726;8.892;2024-03-06T16:50:07;44.10;;;26.58;;
31594;SDS011;18200;48.726;8.892;2024-03-06T16:54:08;44.22;;;25.63;;
31594;SDS011;18200;48.726;8.892;2024-03-06T16:58:08;39.47;;;25.08;;
31594;SDS011;18200;48.726;8.892;2024-03-06T17:02:08;39.45;;;23.85;;
31594;SDS011;18200;48.726;8.892;2024-03-06T17:06:09;41.20;;;25.70;;
31594;SDS011;18200;48.726;8.892;2024-03-06T17:10:10;45.90;;;26.88;;
31594;SDS011;18200;48.726;8.892;2024-03-06T17:14:10;39.25;;;25.77;;
31594;SDS011;18200;48.726;8.892;2024-03-06T17:18:11;46.28;;;27.25;;
31594;SDS011;18200;48.726;8.892;2024-03-06T17:22:12;44.72;;;27.08;;
31594;SDS011;18200;48.726;8.892;2024-03-06T17:26:13;44.63;;;26.88;;
31594;SDS011;18200;48.726;8.892;2024-03-06T17:30:13;45.97;;;27.45;;
31594;SDS011;18200;48.726;8.892;2024-03-06T17:34:15;43.22;;;26.95;;
31594;SDS011;18200;48.726;8.892;2024-03-06T17:38:16;50.45;;;29.17;;
31594;SDS011;18200;48.726;8.892;2024-03-06T17:42:16;48.50;;;27.25;;
31594;SDS011;18200;48.726;8.892;2024-03-06T17:46:17;46.30;;;28.08;;
31594;SDS011;18200;48.726;8.892;2024-03-06T17:50:17;48.60;;;28.70;;
31594;SDS011;18200;48.726;8.892;2024-03-06T17:54:18;42.88;;;27.65;;
31594;SDS011;18200;48.726;8.892;2024-03-06T17:58:18;48.55;;;28.58;;
31594;SDS011;18200;48.726;8.892;2024-03-06T18:02:18;45.55;;;29.15;;
31594;SDS011;18200;48.726;8.892;2024-03-06T18:06:19;49.22;;;29.15;;
31594;SDS011;18200;48.726;8.892;2024-03-06T18:10:21;55.00;;;29.55;;
31594;SDS011;18200;48.726;8.892;2024-03-06T18:14:21;51.45;;;29.02;;
31594;SDS011;18200;48.726;8.892;2024-03-06T18:18:22;50.63;;;29.73;;
31594;SDS011;18200;48.726;8.892;2024-03-06T18:22:23;52.33;;;30.05;;
31594;SDS011;18200;48.726;8.892;2024-03-06T18:26:23;56.90;;;31.88;;
31594;SDS011;18200;48.726;8.892;2024-03-06T18:30:23;53.30;;;31.65;;
31594;SDS011;18200;48.726;8.892;2024-03-06T18:34:24;53.20;;;31.00;;
31594;SDS011;18200;48.726;8.892;2024-03-06T18:38:24;52.72;;;32.22;;
31594;SDS011;18200;48.726;8.892;2024-03-06T18:42:25;48.70;;;30.15;;
31594;SDS011;18200;48.726;8.892;2024-03-06T18:46:25;53.92;;;30.65;;
31594;SDS011;18200;48.726;8.892;2024-03-06T18:50:25;50.58;;;30.30;;
31594;SDS011;18200;48.726;8.892;2024-03-06T18:54:26;54.72;;;31.08;;
31594;SDS011;18200;48.726;8.892;2024-03-06T18:58:26;53.20;;;31.65;;
31594;SDS011;18200;48.726;8.892;2024-03-06T19:02:27;56.33;;;31.90;;
31594;SDS011;18200;48.726;8.892;2024-03-06T19:06:28;56.63;;;31.80;;
31594;SDS011;18200;48.726;8.892;2024-03-06T19:10:28;52.67;;;31.20;;
31594;SDS011;18200;48.726;8.892;2024-03-06T19:14:29;68.53;;;36.47;;
31594;SDS011;18200;48.726;8.892;2024-03-06T19:18:29;68.13;;;36.25;;
31594;SDS011;18200;48.726;8.892;2024-03-06T19:22:32;59.08;;;33.70;;
31594;SDS011;18200;48.726;8.892;2024-03-06T19:26:32;62.08;;;34.15;;
31594;SDS011;18200;48.726;8.892;2024-03-06T19:30:33;61.92;;;34.55;;
31594;SDS011;18200;48.726;8.892;2024-03-06T19:34:33;62.97;;;35.00;;
31594;SDS011;18200;48.726;8.892;2024-03-06T19:38:34;61.05;;;34.05;;
31594;SDS011;18200;48.726;8.892;2024-03-06T19:42:34;60.78;;;34.22;;
31594;SDS011;18200;48.726;8.892;2024-03-06T19:46:34;68.72;;;36.55;;
31594;SDS011;18200;48.726;8.892;2024-03-06T19:50:35;58.97;;;32.97;;
31594;SDS011;18200;48.726;8.892;2024-03-06T19:54:36;65.45;;;35.38;;
31594;SDS011;18200;48.726;8.892;2024-03-06T19:58:36;65.15;;;35.65;;
31594;SDS011;18200;48.726;8.892;2024-03-06T20:02:37;64.55;;;35.97;;
31594;SDS011;18200;48.726;8.892;2024-03-06T20:06:37;66.22;;;35.63;;
31594;SDS011;18200;48.726;8.892;2024-03-06T20:10:44;71.97;;;36.45;;
31594;SDS011;18200;48.726;8.892;2024-03-06T20:14:45;65.35;;;35.63;;
31594;SDS011;18200;48.726;8.892;2024-03-06T20:18:45;71.70;;;38.28;;
31594;SDS011;18200;48.726;8.892;2024-03-06T20:22:45;71.22;;;37.28;;
31594;SDS011;18200;48.726;8.892;2024-03-06T20:26:46;71.32;;;37.80;;
31594;SDS011;18200;48.726;8.892;2024-03-06T20:30:46;78.80;;;39.55;;
31594;SDS011;18200;48.726;8.892;2024-03-06T20:34:46;76.32;;;38.53;;
31594;SDS011;18200;48.726;8.892;2024-03-06T20:38:47;81.32;;;39.30;;
31594;SDS011;18200;48.726;8.892;2024-03-06T20:42:47;76.20;;;38.53;;
31594;SDS011;18200;48.726;8.892;2024-03-06T20:46:47;73.22;;;37.55;;
31594;SDS011;18200;48.726;8.892;2024-03-06T20:50:48;77.75;;;38.97;;
31594;SDS011;18200;48.726;8.892;2024-03-06T20:54:49;79.80;;;39.25;;
31594;SDS011;18200;48.726;8.892;2024-03-06T20:58:49;73.82;;;38.33;;
31594;SDS011;18200;48.726;8.892;2024-03-06T21:02:50;79.20;;;41.13;;
31594;SDS011;18200;48.726;8.892;2024-03-06T21:06:51;77.85;;;41.30;;
31594;SDS011;18200;48.726;8.892;2024-03-06T21:10:52;80.85;;;41.17;;
31594;SDS011;18200;48.726;8.892;2024-03-06T21:14:53;82.55;;;40.20;;
31594;SDS011;18200;48.726;8.892;2024-03-06T21:18:58;81.93;;;40.88;;
31594;SDS011;18200;48.726;8.892;2024-03-06T21:22:58;75.20;;;38.72;;
31594;SDS011;18200;48.726;8.892;2024-03-06T21:27:00;81.68;;;40.60;;
31594;SDS011;18200;48.726;8.892;2024-03-06T21:31:02;79.93;;;40.38;;
31594;SDS011;18200;48.726;8.892;2024-03-06T21:35:03;81.78;;;41.58;;
31594;SDS011;18200;48.726;8.892;2024-03-06T21:39:05;83.10;;;41.63;;
31594;SDS011;18200;48.726;8.892;2024-03-06T21:43:09;82.60;;;43.15;;
31594;SDS011;18200;48.726;8.892;2024-03-06T21:47:09;83.63;;;42.65;;
31594;SDS011;18200;48.726;8.892;2024-03-06T21:51:09;85.18;;;44.15;;
31594;SDS011;18200;48.726;8.892;2024-03-06T21:55:10;82.63;;;40.42;;
31594;SDS011;18200;48.726;8.892;2024-03-06T21:59:11;84.93;;;42.28;;
31594;SDS011;18200;48.726;8.892;2024-03-06T22:03:12;88.30;;;43.47;;
31594;SDS011;18200;48.726;8.892;2024-03-06T22:07:13;81.55;;;40.90;;
31594;SDS011;18200;48.726;8.892;2024-03-06T22:11:13;85.45;;;43.92;;
31594;SDS011;18200;48.726;8.892;2024-03-06T22:15:14;88.57;;;42.92;;
31594;SDS011;18200;48.726;8.892;2024-03-06T22:19:14;86.03;;;42.65;;
31594;SDS011;18200;48.726;8.892;2024-03-06T22:23:15;83.22;;;42.30;;
31594;SDS011;18200;48.726;8.892;2024-03-06T22:27:15;84.90;;;43.55;;
31594;SDS011;18200;48.726;8.892;2024-03-06T22:31:15;87.63;;;43.20;;
31594;SDS011;18200;48.726;8.892;2024-03-06T22:35:16;92.05;;;42.80;;
31594;SDS011;18200;48.726;8.892;2024-03-06T22:39:16;81.07;;;40.97;;
31594;SDS011;18200;48.726;8.892;2024-03-06T22:43:21;86.55;;;41.83;;
31594;SDS011;18200;48.726;8.892;2024-03-06T22:47:22;86.35;;;41.30;;
31594;SDS011;18200;48.726;8.892;2024-03-06T22:51:22;85.03;;;42.67;;
31594;SDS011;18200;48.726;8.892;2024-03-06T22:55:23;88.65;;;41.13;;
31594;SDS011;18200;48.726;8.892;2024-03-06T22:59:23;80.90;;;39.70;;
31594;SDS011;18200;48.726;8.892;2024-03-06T23:03:23;75.18;;;38.25;;
31594;SDS011;18200;48.726;8.892;2024-03-06T23:07:24;88.22;;;42.90;;
31594;SDS011;18200;48.726;8.892;2024-03-06T23:11:24;83.50;;;40.22;;
31594;SDS011;18200;48.726;8.892;2024-03-06T23:15:25;86.35;;;41.92;;
31594;SDS011;18200;48.726;8.892;2024-03-06T23:19:25;83.07;;;40.33;;
31594;SDS011;18200;48.726;8.892;2024-03-06T23:23:25;71.95;;;37.50;;
31594;SDS011;18200;48.726;8.892;2024-03-06T23:27:26;77.68;;;37.92;;
31594;SDS011;18200;48.726;8.892;2024-03-06T23:31:26;77.20;;;36.72;;
31594;SDS011;18200;48.726;8.892;2024-03-06T23:35:27;78.88;;;39.45;;
31594;SDS011;18200;48.726;8.892;2024-03-06T23:39:27;81.13;;;39.08;;
31594;SDS011;18200;48.726;8.892;2024-03-06T23:43:28;75.05;;;38.40;;
31594;SDS011;18200;48.726;8.892;2024-03-06T23:47:28;79.47;;;38.13;;
31594;SDS011;18200;48.726;8.892;2024-03-06T23:51:28;78.22;;;38.05;;